Time;durP1;ratioP1;P1;durP2;ratioP2;P2;SDS_P1;SDS_P2;PMS_P1;PMS_P2;Temp;Humidity;BMP_temperature;BMP_pressure;BME280_temperature;BME280_humidity;BME280_pressure;Samples;Min_cycle;Max_cycle;Signal;HPM_P1;HPM_P2
2023/07/26 00:01:39;;;;;;;21.10;19.50;;;14.70;99.90;;;;;;5077674;28;20515;-51
2023/07/26 00:04:07;;;;;;;22.20;20.30;;;14.70;99.90;;;;;;5071811;28;20184;-48
2023/07/26 00:06:32;;;;;;;22.87;20.40;;;14.70;99.90;;;;;;5076128;28;20234;-49
2023/07/26 00:08:58;;;;;;;24.10;20.80;;;14.60;99.90;;;;;;5067341;28;20838;-47
2023/07/26 00:11:23;;;;;;;21.47;19.50;;;14.70;99.90;;;;;;5077697;28;20218;-45
2023/07/26 00:13:49;;;;;;;22.27;20.27;;;14.70;99.90;;;;;;5074331;28;20203;-47
2023/07/26 00:16:15;;;;;;;21.33;19.63;;;14.70;99.90;;;;;;5062525;28;20193;-48
2023/07/26 00:18:40;;;;;;;22.03;20.13;;;14.60;99.90;;;;;;5070760;28;20624;-44
2023/07/26 00:21:07;;;;;;;21.73;20.03;;;14.60;99.90;;;;;;5078159;28;20216;-45
2023/07/26 00:23:33;;;;;;;22.60;20.60;;;14.60;99.90;;;;;;5072415;28;21075;-45
2023/07/26 00:25:59;;;;;;;21.37;19.57;;;14.60;99.90;;;;;;5068853;28;20540;-46
2023/07/26 00:28:24;;;;;;;20.67;19.17;;;14.60;99.90;;;;;;5075196;28;20441;-45
2023/07/26 00:30:50;;;;;;;20.73;19.03;;;14.70;99.90;;;;;;5076257;28;20271;-46
2023/07/26 00:33:16;;;;;;;22.10;19.90;;;14.60;99.90;;;;;;5073969;28;20201;-47
2023/07/26 00:35:42;;;;;;;22.13;20.13;;;14.70;99.90;;;;;;5070121;28;20537;-45
2023/07/26 00:38:08;;;;;;;21.67;19.77;;;14.70;99.90;;;;;;5071958;28;20202;-46
2023/07/26 00:40:36;;;;;;;21.60;20.00;;;14.70;99.90;;;;;;5072034;28;20557;-43
2023/07/26 00:43:02;;;;;;;22.40;20.70;;;14.70;99.90;;;;;;5078719;28;20948;-44
2023/07/26 00:45:30;;;;;;;21.80;19.87;;;14.70;99.90;;;;;;5073839;28;20426;-44
2023/07/26 00:47:56;;;;;;;22.27;20.27;;;14.60;99.90;;;;;;5069701;28;21069;-47
2023/07/26 00:50:23;;;;;;;21.83;19.93;;;14.70;99.90;;;;;;5057034;28;20478;-48
2023/07/26 00:52:49;;;;;;;20.93;19.33;;;14.60;99.90;;;;;;5079546;28;20529;-44
2023/07/26 00:55:15;;;;;;;21.13;19.33;;;14.70;99.90;;;;;;5068456;28;20437;-45
2023/07/26 00:57:42;;;;;;;20.47;18.90;;;14.70;99.90;;;;;;5076813;28;20185;-44
2023/07/26 01:00:09;;;;;;;21.77;19.73;;;14.70;99.90;;;;;;5065194;28;21015;-47
2023/07/26 01:02:34;;;;;;;21.47;19.40;;;14.60;99.90;;;;;;5071317;28;20431;-43
2023/07/26 01:05:01;;;;;;;21.60;19.87;;;14.70;99.90;;;;;;5060945;28;20504;-44
2023/07/26 01:07:40;;;;;;;20.90;19.30;;;14.70;99.90;;;;;;5071316;28;20607;-44
2023/07/26 01:10:29;;;;;;;22.27;20.17;;;14.70;99.90;;;;;;5069221;28;21478;-48
2023/07/26 01:13:15;;;;;;;20.93;19.33;;;14.60;99.90;;;;;;5105011;28;20779;-44
2023/07/26 01:15:43;;;;;;;21.03;19.40;;;14.60;99.90;;;;;;5076303;28;20442;-43
2023/07/26 01:18:09;;;;;;;21.27;19.57;;;14.60;99.90;;;;;;5058695;28;20788;-46
2023/07/26 01:20:35;;;;;;;21.03;19.33;;;14.60;99.90;;;;;;5071192;28;20461;-45
2023/07/26 01:23:00;;;;;;;21.27;19.77;;;14.60;99.90;;;;;;5068592;28;20808;-44
2023/07/26 01:25:26;;;;;;;21.53;19.93;;;14.60;99.90;;;;;;5060294;28;20221;-45
2023/07/26 01:27:51;;;;;;;20.70;18.90;;;14.60;99.90;;;;;;5064121;28;20184;-43
2023/07/26 01:30:18;;;;;;;20.83;19.10;;;14.60;99.90;;;;;;5068093;28;20868;-51
2023/07/26 01:32:45;;;;;;;21.30;19.50;;;14.60;99.90;;;;;;5076751;28;20185;-42
2023/07/26 01:35:11;;;;;;;20.37;18.80;;;14.60;99.90;;;;;;5075694;28;20499;-42
2023/07/26 01:37:37;;;;;;;20.77;19.07;;;14.60;99.90;;;;;;5060026;28;20435;-47
2023/07/26 01:40:05;;;;;;;20.00;17.60;;;14.60;99.90;;;;;;5065621;28;20212;-46
2023/07/26 01:42:31;;;;;;;19.30;17.50;;;14.60;99.90;;;;;;5066810;28;20514;-43
2023/07/26 01:45:04;;;;;;;19.23;17.40;;;14.60;99.90;;;;;;5063565;28;20454;-44
2023/07/26 01:47:30;;;;;;;19.13;17.33;;;14.50;99.90;;;;;;5066875;28;20794;-44
2023/07/26 01:49:56;;;;;;;19.57;18.07;;;14.50;99.90;;;;;;5071958;28;20438;-43
2023/07/26 01:52:23;;;;;;;19.37;17.87;;;14.50;99.90;;;;;;5073083;28;20525;-42
2023/07/26 01:54:49;;;;;;;19.10;17.47;;;14.50;99.90;;;;;;5065980;28;20442;-43
2023/07/26 01:57:14;;;;;;;18.60;16.80;;;14.40;99.90;;;;;;5063456;28;20871;-46
2023/07/26 01:59:40;;;;;;;18.73;17.30;;;14.40;99.90;;;;;;5065806;28;20263;-44
2023/07/26 02:02:06;;;;;;;18.63;17.03;;;14.40;99.90;;;;;;5072917;28;20459;-43
2023/07/26 02:04:31;;;;;;;18.80;17.03;;;14.40;99.90;;;;;;5065996;28;20261;-46
2023/07/26 02:06:57;;;;;;;19.63;17.73;;;14.30;99.90;;;;;;5065894;28;20443;-44
2023/07/26 02:09:23;;;;;;;17.77;16.37;;;14.30;99.90;;;;;;5075845;28;20188;-48
2023/07/26 02:11:49;;;;;;;18.60;17.17;;;14.30;99.90;;;;;;5062710;28;20189;-46
2023/07/26 02:14:16;;;;;;;17.23;15.53;;;14.30;99.90;;;;;;5080009;28;20188;-43
2023/07/26 02:16:42;;;;;;;17.63;16.43;;;14.20;99.90;;;;;;5076207;28;20787;-45
2023/07/26 02:19:07;;;;;;;17.47;16.07;;;14.10;99.90;;;;;;5064368;28;20499;-47
2023/07/26 02:21:33;;;;;;;19.10;17.40;;;14.10;99.90;;;;;;5069767;28;20215;-44
2023/07/26 02:23:59;;;;;;;18.17;16.67;;;14.00;99.90;;;;;;5075048;28;20277;-44
2023/07/26 02:26:24;;;;;;;17.63;16.23;;;14.00;99.90;;;;;;5076162;28;20491;-43
2023/07/26 02:28:50;;;;;;;17.50;16.00;;;14.00;99.90;;;;;;5078973;28;20184;-44
2023/07/26 02:31:15;;;;;;;17.90;15.47;;;13.90;99.90;;;;;;5071455;28;20192;-43
2023/07/26 02:33:41;;;;;;;17.43;15.83;;;13.90;99.90;;;;;;5076363;28;20582;-44
2023/07/26 02:36:06;;;;;;;18.10;16.40;;;13.80;99.90;;;;;;5064483;28;20189;-45
2023/07/26 02:38:32;;;;;;;17.40;16.27;;;13.80;99.90;;;;;;5081574;28;20275;-45
2023/07/26 02:40:58;;;;;;;18.37;16.87;;;13.80;99.90;;;;;;5073530;28;21023;-46
2023/07/26 02:43:23;;;;;;;17.00;15.80;;;13.80;99.90;;;;;;5076773;28;20781;-44
2023/07/26 02:45:49;;;;;;;20.43;16.17;;;13.80;99.90;;;;;;5077905;28;20468;-44
2023/07/26 02:48:14;;;;;;;17.60;16.10;;;13.80;99.90;;;;;;5062930;28;20482;-45
2023/07/26 02:50:40;;;;;;;18.30;16.57;;;13.80;99.90;;;;;;5061032;28;20181;-47
2023/07/26 02:53:05;;;;;;;17.23;15.60;;;13.70;99.90;;;;;;5069168;28;20637;-44
2023/07/26 02:55:31;;;;;;;17.40;15.70;;;13.70;99.90;;;;;;5071201;28;20195;-43
2023/07/26 02:57:57;;;;;;;17.03;15.73;;;13.70;99.90;;;;;;5060702;28;20288;-46
2023/07/26 03:00:23;;;;;;;16.90;15.50;;;13.70;99.90;;;;;;5065310;28;20217;-49
2023/07/26 03:02:48;;;;;;;17.37;15.83;;;13.60;99.90;;;;;;5078118;28;20802;-44
2023/07/26 03:05:14;;;;;;;17.37;16.07;;;13.60;99.90;;;;;;5064987;28;20280;-43
2023/07/26 03:07:40;;;;;;;16.40;15.23;;;13.70;99.90;;;;;;5072918;28;20706;-45
2023/07/26 03:10:06;;;;;;;16.57;15.40;;;13.60;99.90;;;;;;5069135;28;20264;-45
2023/07/26 03:12:31;;;;;;;17.47;15.97;;;13.60;99.90;;;;;;5076354;28;20535;-44
2023/07/26 03:14:57;;;;;;;17.33;15.80;;;13.70;99.90;;;;;;5061214;28;20508;-48
2023/07/26 03:17:22;;;;;;;16.90;15.40;;;13.70;99.90;;;;;;5067397;28;20204;-44
2023/07/26 03:19:48;;;;;;;17.67;16.23;;;13.70;99.90;;;;;;5076711;28;20189;-47
2023/07/26 03:22:14;;;;;;;20.37;16.20;;;13.60;99.90;;;;;;5068183;28;20196;-46
2023/07/26 03:24:39;;;;;;;17.93;16.60;;;13.70;99.90;;;;;;5070711;28;20661;-46
2023/07/26 03:27:06;;;;;;;17.40;15.73;;;13.70;99.90;;;;;;5068497;28;20189;-46
2023/07/26 03:29:32;;;;;;;17.17;15.67;;;13.70;99.90;;;;;;5063519;28;20628;-51
2023/07/26 03:31:58;;;;;;;17.00;15.63;;;13.80;99.90;;;;;;5066458;28;20495;-45
2023/07/26 03:34:23;;;;;;;18.60;16.70;;;13.80;99.90;;;;;;5071512;28;20232;-47
2023/07/26 03:36:50;;;;;;;17.03;15.63;;;13.80;99.90;;;;;;5081495;28;20576;-44
2023/07/26 03:39:15;;;;;;;17.80;16.10;;;13.80;99.90;;;;;;5080779;28;20653;-45
2023/07/26 03:41:41;;;;;;;17.07;15.47;;;13.90;99.90;;;;;;5066663;28;20470;-45
2023/07/26 03:44:06;;;;;;;17.13;15.73;;;13.90;99.90;;;;;;5068551;28;20214;-44
2023/07/26 03:46:32;;;;;;;17.43;15.73;;;13.90;99.90;;;;;;5062275;28;20199;-47
2023/07/26 03:48:58;;;;;;;16.10;14.67;;;14.00;99.90;;;;;;5076961;28;20655;-49
2023/07/26 03:51:23;;;;;;;16.60;15.20;;;14.00;99.90;;;;;;5076861;28;20624;-44
2023/07/26 03:53:49;;;;;;;15.87;14.60;;;14.00;99.90;;;;;;5062911;28;20193;-44
2023/07/26 03:56:14;;;;;;;17.60;16.20;;;14.00;99.90;;;;;;5069981;28;20271;-45
2023/07/26 03:58:40;;;;;;;16.10;14.73;;;14.00;99.90;;;;;;5065827;28;20184;-44
2023/07/26 04:01:06;;;;;;;17.60;16.03;;;14.00;99.90;;;;;;5072129;28;20215;-43
2023/07/26 04:03:31;;;;;;;16.70;15.20;;;14.10;99.90;;;;;;5069822;28;20204;-45
2023/07/26 04:05:57;;;;;;;20.50;15.10;;;14.10;99.90;;;;;;5079818;28;20371;-45
2023/07/26 04:08:22;;;;;;;16.90;15.07;;;14.10;99.90;;;;;;5071122;28;20776;-42
2023/07/26 04:10:48;;;;;;;16.47;14.87;;;14.10;99.90;;;;;;5062319;28;20633;-45
2023/07/26 04:13:13;;;;;;;17.17;15.60;;;14.20;99.90;;;;;;5058775;28;20193;-43
2023/07/26 04:15:39;;;;;;;16.73;15.33;;;14.20;99.90;;;;;;5064271;28;20194;-46
2023/07/26 04:18:05;;;;;;;16.53;15.10;;;14.30;99.90;;;;;;5065401;28;20643;-44
2023/07/26 04:20:30;;;;;;;16.80;15.60;;;14.30;99.90;;;;;;5066220;28;20429;-47
2023/07/26 04:22:56;;;;;;;16.40;15.10;;;14.30;99.90;;;;;;5064132;28;20185;-47
2023/07/26 04:25:21;;;;;;;17.70;16.13;;;14.30;99.90;;;;;;5077307;28;20297;-44
2023/07/26 04:27:47;;;;;;;16.10;14.83;;;14.30;99.90;;;;;;5073927;28;20181;-46
2023/07/26 04:30:13;;;;;;;16.33;14.63;;;14.30;99.90;;;;;;5078960;28;20192;-43
2023/07/26 04:32:38;;;;;;;16.37;14.83;;;14.40;99.90;;;;;;5067733;28;20279;-44
2023/07/26 04:35:05;;;;;;;14.80;13.80;;;14.30;99.90;;;;;;5076485;28;20208;-47
2023/07/26 04:37:31;;;;;;;15.97;14.40;;;14.40;99.90;;;;;;5065051;28;20439;-46
2023/07/26 04:39:56;;;;;;;15.47;14.30;;;14.30;99.90;;;;;;5075022;28;21053;-45
2023/07/26 04:42:22;;;;;;;15.00;13.70;;;14.40;99.90;;;;;;5071790;28;20180;-44
2023/07/26 04:44:47;;;;;;;16.13;14.80;;;14.40;99.90;;;;;;5071416;28;20191;-46
2023/07/26 04:47:15;;;;;;;15.50;14.00;;;14.40;99.90;;;;;;5079882;28;20192;-43
2023/07/26 04:49:41;;;;;;;15.70;14.47;;;14.40;99.90;;;;;;5072691;28;20499;-44
2023/07/26 04:52:07;;;;;;;16.23;14.93;;;14.40;99.90;;;;;;5068237;28;20435;-48
2023/07/26 04:54:32;;;;;;;14.20;13.07;;;14.40;99.90;;;;;;5070170;28;20486;-47
2023/07/26 04:56:58;;;;;;;15.97;14.50;;;14.50;99.90;;;;;;5079449;28;21100;-44
2023/07/26 04:59:24;;;;;;;16.23;14.70;;;14.50;99.90;;;;;;5066277;28;20632;-47
2023/07/26 05:01:49;;;;;;;14.17;13.00;;;14.50;99.90;;;;;;5069575;28;20467;-43
2023/07/26 05:04:15;;;;;;;14.10;13.10;;;14.50;99.90;;;;;;5066699;28;20383;-43
2023/07/26 05:06:40;;;;;;;16.10;14.07;;;14.50;99.90;;;;;;5078263;28;20559;-45
2023/07/26 05:09:06;;;;;;;15.07;13.77;;;14.50;99.90;;;;;;5074289;28;20677;-48
2023/07/26 05:11:32;;;;;;;14.73;13.53;;;14.50;99.90;;;;;;5070912;28;20187;-44
2023/07/26 05:13:57;;;;;;;14.77;13.50;;;14.60;99.90;;;;;;5079221;28;20976;-48
2023/07/26 05:16:23;;;;;;;14.40;13.37;;;14.70;99.90;;;;;;5079476;28;20662;-43
2023/07/26 05:18:49;;;;;;;14.20;13.30;;;14.70;99.90;;;;;;5076205;28;20184;-47
2023/07/26 05:21:14;;;;;;;14.73;13.73;;;14.70;99.90;;;;;;5079025;28;20299;-45
2023/07/26 05:23:40;;;;;;;16.47;13.80;;;14.60;99.90;;;;;;5078702;28;20192;-46
2023/07/26 05:26:05;;;;;;;14.50;13.37;;;14.70;99.90;;;;;;5079154;28;20571;-47
2023/07/26 05:28:31;;;;;;;14.17;13.27;;;14.80;99.90;;;;;;5062062;28;20173;-46
2023/07/26 05:30:57;;;;;;;14.63;13.63;;;14.80;96.10;;;;;;5065105;28;20347;-47
2023/07/26 05:33:22;;;;;;;14.30;13.30;;;14.80;92.80;;;;;;5064744;28;20191;-42
2023/07/26 05:35:48;;;;;;;14.43;13.20;;;14.90;87.20;;;;;;5078517;28;20184;-45
2023/07/26 05:38:14;;;;;;;13.80;13.10;;;15.00;85.80;;;;;;5079268;28;20192;-44
2023/07/26 05:40:39;;;;;;;14.07;13.20;;;15.00;68.30;;;;;;5078513;28;20208;-43
2023/07/26 05:43:05;;;;;;;14.20;12.90;;;15.10;51.80;;;;;;5078475;28;20618;-45
2023/07/26 05:45:30;;;;;;;13.97;13.00;;;15.20;48.40;;;;;;5079992;28;20531;-48
2023/07/26 05:47:56;;;;;;;14.40;13.10;;;15.30;51.10;;;;;;5082010;28;20176;-43
2023/07/26 05:50:22;;;;;;;13.40;12.47;;;15.30;24.60;;;;;;5083307;28;20177;-43
2023/07/26 05:52:47;;;;;;;14.50;13.20;;;15.30;26.40;;;;;;5069709;28;20200;-43
2023/07/26 05:55:13;;;;;;;13.87;12.90;;;15.30;11.20;;;;;;5074013;28;20434;-45
2023/07/26 05:57:39;;;;;;;13.97;13.00;;;15.30;7.00;;;;;;5082351;28;20181;-42
2023/07/26 06:00:05;;;;;;;13.73;12.70;;;15.40;15.20;;;;;;5082522;28;20184;-45
2023/07/26 06:02:31;;;;;;;14.20;13.40;;;15.40;1.00;;;;;;5080265;28;20425;-47
2023/07/26 06:04:57;;;;;;;13.87;12.70;;;15.30;1.00;;;;;;5082484;28;20761;-47
2023/07/26 06:07:22;;;;;;;14.23;13.33;;;15.40;3.80;;;;;;5077952;28;20184;-42
2023/07/26 06:09:48;;;;;;;15.70;12.80;;;15.40;1.00;;;;;;5074015;28;20414;-41
2023/07/26 06:12:13;;;;;;;13.60;12.67;;;15.40;1.00;;;;;;5082247;28;20226;-43
2023/07/26 06:14:39;;;;;;;14.07;12.97;;;15.40;1.00;;;;;;5081186;28;20208;-42
2023/07/26 06:17:05;;;;;;;14.37;13.17;;;15.40;1.00;;;;;;5081876;28;20180;-45
2023/07/26 06:19:31;;;;;;;14.10;13.20;;;15.40;1.00;;;;;;5082326;28;20246;-44
2023/07/26 06:21:56;;;;;;;14.20;13.00;;;15.40;1.00;;;;;;5081769;28;20793;-42
2023/07/26 06:24:26;;;;;;;13.27;12.40;;;15.40;1.00;;;;;;5081878;28;20258;-45
2023/07/26 06:26:52;;;;;;;14.27;13.17;;;15.40;1.00;;;;;;5082592;28;20654;-45
2023/07/26 06:29:18;;;;;;;13.33;12.60;;;15.40;1.00;;;;;;5082198;28;20414;-44
2023/07/26 06:31:44;;;;;;;13.60;12.60;;;15.40;1.00;;;;;;5074507;28;20430;-40
2023/07/26 06:34:09;;;;;;;14.30;13.30;;;15.40;1.00;;;;;;5082157;28;20415;-41
2023/07/26 06:36:35;;;;;;;13.47;12.60;;;15.40;1.00;;;;;;5081571;28;20253;-42
2023/07/26 06:39:01;;;;;;;13.00;12.10;;;15.40;1.00;;;;;;5082235;28;20670;-43
2023/07/26 06:41:27;;;;;;;14.53;13.17;;;15.30;1.00;;;;;;5082171;28;20219;-42
2023/07/26 06:43:52;;;;;;;14.10;13.10;;;15.40;1.00;;;;;;5080414;28;20939;-42
2023/07/26 06:46:18;;;;;;;13.10;12.07;;;15.50;1.00;;;;;;5080477;28;20623;-43
2023/07/26 06:48:44;;;;;;;14.10;13.17;;;15.50;1.00;;;;;;5081242;28;20391;-41
2023/07/26 06:51:09;;;;;;;13.80;12.70;;;15.60;1.00;;;;;;5081446;28;20578;-43
2023/07/26 06:53:35;;;;;;;13.43;12.53;;;15.70;1.00;;;;;;5066875;28;20408;-45
2023/07/26 06:56:01;;;;;;;14.20;13.10;;;15.80;1.00;;;;;;5077401;28;20196;-42
2023/07/26 06:58:26;;;;;;;14.67;13.53;;;15.80;1.00;;;;;;5072454;28;20185;-43
2023/07/26 07:00:54;;;;;;;14.30;13.13;;;16.00;1.00;;;;;;5078966;28;20201;-44
2023/07/26 07:03:19;;;;;;;13.27;12.57;;;16.10;1.00;;;;;;5081524;28;20180;-44
2023/07/26 07:05:45;;;;;;;13.93;12.73;;;16.20;1.00;;;;;;5080916;28;20405;-42
2023/07/26 07:08:11;;;;;;;13.60;12.60;;;16.30;1.00;;;;;;5081269;28;20546;-46
2023/07/26 07:10:36;;;;;;;13.73;12.93;;;16.40;1.00;;;;;;5078808;28;20239;-41
2023/07/26 07:13:02;;;;;;;13.30;12.50;;;16.50;1.00;;;;;;5060358;28;20285;-45
2023/07/26 07:15:27;;;;;;;12.70;11.70;;;16.70;1.00;;;;;;5079602;28;20188;-46
2023/07/26 07:17:53;;;;;;;13.90;13.10;;;16.80;1.00;;;;;;5081502;28;20188;-41
2023/07/26 07:20:19;;;;;;;13.63;12.73;;;17.00;1.00;;;;;;5081447;28;20830;-44
2023/07/26 07:22:45;;;;;;;13.90;13.00;;;17.10;1.00;;;;;;5075402;28;20488;-41
2023/07/26 07:25:11;;;;;;;13.87;12.97;;;17.10;1.00;;;;;;5069932;28;20984;-43
2023/07/26 07:27:36;;;;;;;14.60;13.73;;;17.00;1.00;;;;;;5069048;28;20181;-43
2023/07/26 07:30:03;;;;;;;14.17;13.13;;;17.20;1.00;;;;;;5078496;28;20180;-44
2023/07/26 07:32:28;;;;;;;12.10;11.30;;;17.40;1.00;;;;;;5080920;28;20180;-43
2023/07/26 07:34:54;;;;;;;12.50;11.70;;;17.40;99.90;;;;;;5078480;28;20931;-43
2023/07/26 07:37:20;;;;;;;13.73;12.83;;;17.40;1.00;;;;;;5080906;28;20533;-42
2023/07/26 07:39:46;;;;;;;13.10;12.17;;;17.30;1.00;;;;;;5080954;28;20181;-43
2023/07/26 07:42:11;;;;;;;12.13;11.33;;;17.30;1.00;;;;;;5080625;28;20462;-42
2023/07/26 07:44:37;;;;;;;12.73;11.90;;;17.30;99.90;;;;;;5080833;28;20181;-44
2023/07/26 07:47:03;;;;;;;12.77;11.83;;;17.30;99.90;;;;;;5080787;28;20554;-43
2023/07/26 07:49:29;;;;;;;12.60;11.70;;;17.40;5.40;;;;;;5080816;28;20475;-45
2023/07/26 07:51:54;;;;;;;12.03;11.30;;;17.40;1.00;;;;;;5080701;28;20291;-41
2023/07/26 07:54:20;;;;;;;13.40;12.60;;;17.50;99.90;;;;;;5073204;28;20642;-44
2023/07/26 07:56:47;;;;;;;13.63;12.73;;;17.60;99.90;;;;;;5058247;28;20215;-44
2023/07/26 07:59:13;;;;;;;13.00;12.20;;;17.70;1.00;;;;;;5062383;28;20311;-43
2023/07/26 08:01:39;;;;;;;13.77;12.63;;;17.80;99.90;;;;;;5058737;28;20467;-45
2023/07/26 08:04:04;;;;;;;13.23;12.53;;;17.80;1.00;;;;;;5077916;28;20251;-44
2023/07/26 08:06:32;;;;;;;13.40;12.50;;;18.00;99.90;;;;;;5077587;28;20475;-44
2023/07/26 08:08:58;;;;;;;13.33;12.50;;;18.20;99.90;;;;;;5078706;28;20511;-42
2023/07/26 08:11:23;;;;;;;12.77;12.07;;;18.40;1.00;;;;;;5080501;28;20423;-45
2023/07/26 08:13:49;;;;;;;12.57;11.83;;;18.50;1.00;;;;;;5080003;28;20210;-43
2023/07/26 08:16:14;;;;;;;12.30;11.70;;;18.60;99.90;;;;;;5078621;28;20192;-41
2023/07/26 08:18:40;;;;;;;12.50;11.90;;;18.60;13.70;;;;;;5077098;28;20538;-42
2023/07/26 08:21:06;;;;;;;12.67;11.97;;;18.50;1.00;;;;;;5079968;28;20239;-42
2023/07/26 08:23:32;;;;;;;12.90;12.20;;;18.40;1.00;;;;;;5080363;28;20295;-41
2023/07/26 08:26:07;;;;;;;13.20;12.40;;;18.50;1.00;;;;;;5072360;28;20630;-44
2023/07/26 08:28:33;;;;;;;12.83;12.13;;;18.60;1.00;;;;;;5080007;28;20410;-44
2023/07/26 08:30:59;;;;;;;13.10;11.97;;;18.70;50.60;;;;;;5079865;28;20444;-43
2023/07/26 08:33:25;;;;;;;13.40;12.70;;;18.60;45.10;;;;;;5079790;28;20414;-43
2023/07/26 08:35:51;;;;;;;13.33;12.37;;;18.50;1.00;;;;;;5079860;28;21019;-42
2023/07/26 08:38:17;;;;;;;12.00;11.30;;;18.70;1.00;;;;;;5074466;28;20268;-43
2023/07/26 08:40:47;;;;;;;13.10;12.40;;;18.70;99.90;;;;;;5071914;28;20192;-42
2023/07/26 08:43:18;;;;;;;12.50;11.80;;;19.00;99.90;;;;;;5079703;28;20426;-44
2023/07/26 08:45:44;;;;;;;12.27;11.57;;;19.30;1.00;;;;;;5079941;28;20405;-43
2023/07/26 08:48:11;;;;;;;11.90;11.30;;;19.20;1.00;;;;;;5069927;28;20983;-42
2023/07/26 08:50:39;;;;;;;12.60;11.90;;;19.10;1.00;;;;;;5079441;28;20427;-41
2023/07/26 08:53:06;;;;;;;13.13;12.50;;;19.10;99.90;;;;;;5078717;28;21201;-45
2023/07/26 08:55:32;;;;;;;12.53;11.60;;;19.30;1.00;;;;;;5074816;28;20807;-44
2023/07/26 08:58:01;;;;;;;13.13;12.33;;;19.60;1.00;;;;;;5072631;28;21320;-44
2023/07/26 09:00:28;;;;;;;12.93;12.23;;;19.80;3.00;;;;;;5073546;28;20477;-43
2023/07/26 09:02:55;;;;;;;12.30;11.70;;;19.90;99.90;;;;;;5079248;28;20427;-44
2023/07/26 09:05:22;;;;;;;12.80;12.20;;;20.00;83.10;;;;;;5079652;28;20422;-46
2023/07/26 09:07:52;;;;;;;12.77;12.03;;;20.30;1.00;;;;;;5079230;28;20419;-44
2023/07/26 09:10:28;;;;;;;13.27;12.40;;;20.60;99.70;;;;;;5079624;28;20842;-43
2023/07/26 09:13:11;;;;;;;12.80;12.20;;;20.50;1.00;;;;;;5079008;28;20433;-42
2023/07/26 09:15:38;;;;;;;12.90;12.30;;;20.40;1.00;;;;;;5066352;28;20417;-42
2023/07/26 09:18:04;;;;;;;13.43;12.60;;;20.10;1.00;;;;;;5079128;28;20514;-41
2023/07/26 09:20:31;;;;;;;14.70;13.80;;;20.30;99.90;;;;;;5078612;28;20450;-43
2023/07/26 09:23:05;;;;;;;12.63;12.03;;;20.70;13.20;;;;;;5079352;28;20780;-45
2023/07/26 09:25:43;;;;;;;13.83;13.10;;;21.10;1.00;;;;;;5068999;28;20476;-41
2023/07/26 09:28:13;;;;;;;12.60;11.80;;;21.50;1.00;;;;;;5079001;28;20494;-42
2023/07/26 09:30:41;;;;;;;12.87;12.17;;;22.00;1.00;;;;;;5079246;28;20916;-42
2023/07/26 09:33:09;;;;;;;13.27;12.47;;;22.10;1.00;;;;;;5077386;28;20798;-42
2023/07/26 09:35:46;;;;;;;13.37;12.57;;;22.40;1.00;;;;;;5079230;28;20795;-46
2023/07/26 09:38:13;;;;;;;13.10;12.23;;;22.70;99.90;;;;;;5074529;28;20457;-43
2023/07/26 09:40:39;;;;;;;12.90;12.20;;;22.50;1.00;;;;;;5079536;28;20483;-43
2023/07/26 09:43:05;;;;;;;12.50;11.90;;;22.30;1.00;;;;;;5078772;28;20418;-45
2023/07/26 09:45:31;;;;;;;12.93;12.33;;;21.90;1.00;;;;;;5079460;28;20169;-43
2023/07/26 09:48:07;;;;;;;12.20;11.40;;;21.70;1.00;;;;;;5077295;28;21191;-44
2023/07/26 09:50:32;;;;;;;12.40;11.80;;;21.70;1.00;;;;;;5079535;28;20634;-42
2023/07/26 09:52:59;;;;;;;13.00;12.20;;;21.40;1.00;;;;;;5078886;28;20458;-45
2023/07/26 09:55:27;;;;;;;12.70;12.10;;;21.60;1.00;;;;;;5060298;28;20550;-44
2023/07/26 09:57:57;;;;;;;11.60;10.90;;;22.00;1.00;;;;;;5063108;28;20443;-44
2023/07/26 10:00:24;;;;;;;12.57;12.00;;;21.80;1.00;;;;;;5072843;28;20816;-42
2023/07/26 10:03:04;;;;;;;12.40;11.80;;;22.30;99.90;;;;;;5078629;28;20878;-41
2023/07/26 10:05:38;;;;;;;12.87;12.17;;;22.40;99.90;;;;;;5079101;28;20453;-42
2023/07/26 10:08:05;;;;;;;12.07;11.47;;;22.10;99.90;;;;;;5078806;28;20414;-42
2023/07/26 10:10:31;;;;;;;12.10;11.60;;;22.00;99.90;;;;;;5078808;28;20425;-42
2023/07/26 10:12:58;;;;;;;12.03;11.53;;;22.10;99.90;;;;;;5078993;28;20430;-42
2023/07/26 10:15:25;;;;;;;11.77;11.27;;;22.50;1.00;;;;;;5078728;28;20197;-41
2023/07/26 10:17:52;;;;;;;12.27;11.73;;;22.90;99.90;;;;;;5078561;28;20737;-43
2023/07/26 10:20:18;;;;;;;12.60;12.10;;;23.50;99.90;;;;;;5078670;28;20515;-42
2023/07/26 10:22:45;;;;;;;13.60;12.80;;;23.60;99.90;;;;;;5078344;28;20505;-41
2023/07/26 10:25:11;;;;;;;13.40;12.80;;;23.40;99.90;;;;;;5062685;28;20769;-46
2023/07/26 10:27:37;;;;;;;13.20;12.60;;;23.40;99.90;;;;;;5069367;28;20806;-44
2023/07/26 10:30:04;;;;;;;13.33;12.60;;;22.50;99.90;;;;;;5078501;28;20199;-42
2023/07/26 10:32:31;;;;;;;14.43;13.73;;;21.90;99.90;;;;;;5081062;28;20480;-42
2023/07/26 10:34:59;;;;;;;15.40;14.63;;;21.50;99.90;;;;;;5080724;28;20439;-41
2023/07/26 10:37:32;;;;;;;15.17;14.27;;;21.50;99.90;;;;;;5071053;28;20476;-44
2023/07/26 10:39:59;;;;;;;14.10;13.50;;;22.10;99.90;;;;;;5080892;28;21230;-41
2023/07/26 10:42:26;;;;;;;14.60;13.90;;;23.10;99.90;;;;;;5078151;28;20462;-43
2023/07/26 10:44:54;;;;;;;14.37;13.57;;;24.00;99.90;;;;;;5082261;28;20916;-44
2023/07/26 10:47:20;;;;;;;13.27;12.67;;;25.10;99.90;;;;;;5081809;28;20475;-43
2023/07/26 10:49:48;;;;;;;13.20;12.60;;;25.60;99.90;;;;;;5080584;28;20760;-48
2023/07/26 10:52:15;;;;;;;14.20;13.37;;;25.60;99.90;;;;;;5081753;28;20184;-47
2023/07/26 10:54:50;;;;;;;13.40;12.80;;;25.00;99.90;;;;;;5068905;28;21018;-48
2023/07/26 10:57:31;;;;;;;13.10;12.50;;;24.50;99.90;;;;;;5079773;28;20915;-42
2023/07/26 11:00:06;;;;;;;13.27;12.70;;;24.00;99.90;;;;;;5066091;28;20492;-43
2023/07/26 11:02:49;;;;;;;13.90;13.20;;;23.60;99.90;;;;;;5066019;28;20518;-44
2023/07/26 11:05:24;;;;;;;14.17;13.47;;;22.80;99.90;;;;;;5081188;28;20916;-41
2023/07/26 11:07:59;;;;;;;13.73;13.03;;;22.60;99.90;;;;;;5082092;28;20410;-43
2023/07/26 11:10:29;;;;;;;13.17;12.57;;;22.20;99.90;;;;;;5077150;28;20428;-43
2023/07/26 11:13:08;;;;;;;13.57;12.87;;;21.80;99.90;;;;;;5081235;28;21022;-43
2023/07/26 11:15:38;;;;;;;14.03;13.23;;;21.40;99.90;;;;;;5081115;28;20415;-42
2023/07/26 11:18:04;;;;;;;13.93;13.13;;;21.10;99.90;;;;;;5081333;28;20448;-42
2023/07/26 11:20:30;;;;;;;13.70;13.10;;;21.10;99.90;;;;;;5080983;28;20826;-43
2023/07/26 11:22:55;;;;;;;13.60;13.00;;;20.90;99.90;;;;;;5081167;28;20622;-41
2023/07/26 11:25:21;;;;;;;13.20;12.60;;;20.60;99.90;;;;;;5080699;28;20228;-41
2023/07/26 11:27:48;;;;;;;14.07;13.13;;;20.30;99.90;;;;;;5074523;28;20185;-51
2023/07/26 11:30:19;;;;;;;13.40;12.70;;;20.20;99.90;;;;;;5068952;28;20695;-47
2023/07/26 11:32:46;;;;;;;13.67;13.00;;;20.50;99.90;;;;;;5081155;28;20414;-47
2023/07/26 11:35:12;;;;;;;12.70;12.00;;;20.80;99.90;;;;;;5068039;28;20413;-47
2023/07/26 11:37:38;;;;;;;12.67;12.07;;;21.70;99.90;;;;;;5080563;28;20414;-51
2023/07/26 11:40:06;;;;;;;12.80;12.00;;;22.80;99.90;;;;;;5080997;28;20848;-48
2023/07/26 11:42:33;;;;;;;12.30;11.60;;;23.80;99.90;;;;;;5079390;28;20546;-51
2023/07/26 11:45:03;;;;;;;12.53;11.93;;;24.50;99.90;;;;;;5078839;28;20429;-47
2023/07/26 11:47:32;;;;;;;12.67;12.17;;;24.60;99.90;;;;;;5075788;28;20430;-46
2023/07/26 11:49:57;;;;;;;11.80;11.30;;;24.40;99.90;;;;;;5079134;28;21429;-53
2023/07/26 11:52:23;;;;;;;12.77;12.07;;;24.00;99.90;;;;;;5070507;28;20469;-55
2023/07/26 11:55:00;;;;;;;12.77;12.23;;;23.40;99.90;;;;;;5071993;28;20188;-51
2023/07/26 11:57:26;;;;;;;12.50;12.00;;;23.20;99.90;;;;;;5077513;28;20199;-49
2023/07/26 11:59:56;;;;;;;13.03;12.43;;;22.80;99.90;;;;;;5060995;28;20789;-49
2023/07/26 12:02:23;;;;;;;12.37;11.87;;;22.60;99.90;;;;;;5077506;28;20458;-49
2023/07/26 12:05:14;;;;;;;12.30;11.70;;;23.20;99.90;;;;;;5080272;28;20517;-47
2023/07/26 12:07:48;;;;;;;11.53;11.03;;;24.40;99.90;;;;;;5080709;28;20418;-47
2023/07/26 12:10:26;;;;;;;11.73;11.23;;;25.60;99.90;;;;;;5080299;28;20884;-53
2023/07/26 12:12:52;;;;;;;12.30;11.80;;;26.00;99.90;;;;;;5080473;28;20410;-48
2023/07/26 12:15:18;;;;;;;11.53;11.03;;;27.00;99.90;;;;;;5080263;28;20427;-54
2023/07/26 12:17:54;;;;;;;11.40;11.00;;;27.90;99.90;;;;;;5080039;28;20176;-48
2023/07/26 12:20:21;;;;;;;12.03;11.43;;;28.70;99.90;;;;;;5079526;28;20176;-50
2023/07/26 12:22:55;;;;;;;12.50;12.00;;;29.60;99.90;;;;;;5080033;28;20513;-49
2023/07/26 12:25:33;;;;;;;12.00;11.40;;;29.80;99.90;;;;;;5079371;28;20469;-51
2023/07/26 12:27:58;;;;;;;12.03;11.53;;;29.50;99.90;;;;;;5078841;28;21319;-51
2023/07/26 12:30:26;;;;;;;12.30;11.80;;;28.20;99.90;;;;;;5078691;28;20430;-49